Time;durP1;ratioP1;P1;durP2;ratioP2;P2;SDS_P1;SDS_P2;PMS_P1;PMS_P2;Temp;Humidity;BMP_temperature;BMP_pressure;BME280_temperature;BME280_humidity;BME280_pressure;Samples;Min_cycle;Max_cycle;Signal;HPM_P1;HPM_P2
2022/01/22 00:01:08;;;;;;;8.15;0.95;;;;;;;1.55;48.76;100424.66;4379486;32;33845;-90
2022/01/22 00:03:49;;;;;;;2.35;0.60;;;;;;;1.58;49.03;100413.37;4397916;32;32667;-92
2022/01/22 00:06:28;;;;;;;1.25;0.68;;;;;;;1.59;48.35;100395.16;4331884;33;32182;-92
2022/01/22 00:09:24;;;;;;;4.55;0.68;;;;;;;1.85;47.63;100409.94;4377481;32;32784;-91
2022/01/22 00:12:23;;;;;;;3.80;1.02;;;;;;;1.88;47.53;100402.16;4381136;32;33702;-91
2022/01/22 00:15:24;;;;;;;2.65;0.57;;;;;;;1.83;47.27;100399.53;4379202;32;33917;-91
2022/01/22 00:18:06;;;;;;;1.65;0.93;;;;;;;1.40;48.87;100403.78;4395462;32;33298;-92
2022/01/22 00:21:03;;;;;;;3.25;0.82;;;;;;;1.72;47.71;100412.56;4401468;32;32974;-91
2022/01/22 00:23:55;;;;;;;4.72;0.95;;;;;;;1.58;47.70;100405.59;4374784;32;33283;-92
2022/01/22 00:26:47;;;;;;;2.80;1.00;;;;;;;1.80;47.10;100404.72;4373319;32;32540;-90
2022/01/22 00:29:35;;;;;;;1.50;0.80;;;;;;;1.57;47.83;100404.72;4375530;32;33490;-90
2022/01/22 00:32:08;;;;;;;3.92;0.70;;;;;;;1.75;47.45;100404.72;4397568;32;32695;-91
2022/01/22 00:34:55;;;;;;;8.77;0.85;;;;;;;1.64;47.93;100396.03;4382329;32;33221;-91
2022/01/22 00:37:35;;;;;;;3.30;0.98;;;;;;;1.97;46.32;100396.97;4396324;32;33980;-90
2022/01/22 00:40:23;;;;;;;3.85;0.55;;;;;;;1.79;47.35;100387.38;4363289;32;31725;-91
2022/01/22 00:43:26;;;;;;;;;;;;;;;2.09;46.05;100396.97;4358659;32;32969;-90
2022/01/22 00:46:05;;;;;;;3.15;0.98;;;;;;;1.73;47.19;100398.66;4345096;33;33281;-90
2022/01/22 00:49:06;;;;;;;3.60;0.88;;;;;;;1.86;46.68;100390.88;4381188;32;32372;-89
2022/01/22 00:51:33;;;;;;;1.50;0.62;;;;;;;1.93;47.18;100384.78;4389591;32;33537;-89
2022/01/22 00:54:04;;;;;;;3.62;1.05;;;;;;;1.86;47.15;100388.28;4389925;32;32911;-88
2022/01/22 00:56:32;;;;;;;3.42;0.88;;;;;;;1.76;47.40;100385.66;4377058;32;32713;-89
2022/01/22 00:59:00;;;;;;;1.02;0.52;;;;;;;2.09;46.80;100386.56;4388506;32;32922;-88
2022/01/22 01:01:28;;;;;;;4.00;1.05;;;;;;;2.31;46.49;100376.97;4389366;32;33440;-88
2022/01/22 01:04:02;;;;;;;2.70;1.02;;;;;;;2.40;46.27;100373.50;4389430;32;33816;-89
2022/01/22 01:06:30;;;;;;;4.65;0.98;;;;;;;2.43;46.24;100368.28;4388996;32;33240;-88
2022/01/22 01:09:00;;;;;;;3.85;1.17;;;;;;;1.95;47.25;100370.06;4388432;32;33437;-88
2022/01/22 01:11:31;;;;;;;1.52;0.73;;;;;;;2.39;46.55;100364.81;4390167;32;32048;-89
2022/01/22 01:14:02;;;;;;;4.45;0.95;;;;;;;2.40;46.41;100355.25;4389050;32;32728;-90
2022/01/22 01:17:10;;;;;;;1.98;0.70;;;;;;;2.52;46.23;100329.19;4379986;32;33169;-90
2022/01/22 01:32:19;;;;;;;4.62;1.17;;;;;;;2.56;46.23;100278.75;4381111;32;32703;-92
2022/01/22 01:35:05;;;;;;;1.17;0.73;;;;;;;2.16;46.87;100284.06;4377285;32;32001;-91
2022/01/22 01:38:02;;;;;;;2.35;0.90;;;;;;;2.11;47.44;100275.41;4383869;32;32469;-91
2022/01/22 01:40:38;;;;;;;1.85;0.75;;;;;;;2.25;47.31;100272.75;4373914;32;32979;-92
2022/01/22 01:43:37;;;;;;;3.95;0.75;;;;;;;2.24;47.40;100266.69;4353776;32;32391;-92
2022/01/22 01:46:17;;;;;;;1.50;0.65;;;;;;;2.40;47.38;100261.44;4375803;32;32402;-92
2022/01/22 01:48:50;;;;;;;1.87;0.95;;;;;;;2.11;48.20;100257.16;4358486;32;34108;-92
2022/01/22 01:51:38;;;;;;;0.73;0.47;;;;;;;2.02;48.51;100246.75;4383598;32;32905;-92
2022/01/22 01:54:38;;;;;;;0.62;0.47;;;;;;;2.09;48.67;100235.47;4388808;32;32744;-92
2022/01/22 01:57:33;;;;;;;0.93;0.55;;;;;;;2.38;47.92;100234.53;4389699;32;32982;-91
2022/01/22 02:00:26;;;;;;;0.75;0.52;;;;;;;2.25;48.63;100220.66;4391384;32;32814;-90
2022/01/22 02:03:18;;;;;;;1.15;0.75;;;;;;;2.41;48.03;100217.09;4382784;32;32358;-90
2022/01/22 02:06:09;;;;;;;1.67;0.60;;;;;;;2.27;48.25;100204.13;4373765;32;34276;-92
2022/01/22 02:09:01;;;;;;;1.05;0.60;;;;;;;2.29;48.14;100186.75;4346466;32;33700;-91
2022/01/22 02:11:42;;;;;;;1.52;0.73;;;;;;;2.33;47.94;100186.72;4405341;32;32734;-91
2022/01/22 02:24:06;;;;;;;5.43;0.47;;;;;;;2.42;46.79;100171.94;4401130;32;34817;-91
2022/01/22 02:27:14;;;;;;;0.37;0.30;;;;;;;2.28;47.15;100168.53;4373607;32;34099;-92
2022/01/22 02:30:18;;;;;;;1.08;0.57;;;;;;;2.48;46.65;100168.44;4383545;32;33752;-91
2022/01/22 02:33:39;;;;;;;5.12;0.90;;;;;;;2.63;45.97;100164.88;4343300;33;31654;-91
2022/01/22 02:36:40;;;;;;;0.98;0.32;;;;;;;2.30;46.35;100165.03;4367213;32;33072;-91
2022/01/22 02:39:24;;;;;;;2.15;0.90;;;;;;;2.47;46.68;100158.87;4399240;32;33759;-91
2022/01/22 02:42:15;;;;;;;1.77;0.85;;;;;;;2.42;46.38;100148.50;4353039;32;33603;-91
2022/01/22 02:45:10;;;;;;;2.22;0.73;;;;;;;2.79;45.95;100151.72;4360635;32;32635;-92
2022/01/22 02:47:50;;;;;;;3.37;0.80;;;;;;;2.73;46.30;100169.16;4389820;32;33671;-91
2022/01/22 02:50:42;;;;;;;2.22;0.45;;;;;;;2.56;46.42;100153.59;4403048;32;33217;-92
2022/01/22 02:53:33;;;;;;;2.58;0.55;;;;;;;2.33;47.00;100151.16;4432266;32;33637;-91
2022/01/22 02:56:14;;;;;;;2.97;0.40;;;;;;;2.63;46.23;100163.13;4358634;32;32203;-91
2022/01/22 02:59:06;;;;;;;3.62;0.50;;;;;;;2.41;46.61;100158.91;4371662;32;33629;-93
2022/01/22 03:02:12;;;;;;;2.08;0.95;;;;;;;2.50;46.48;100159.72;4390202;32;34517;-93
2022/01/22 03:05:09;;;;;;;0.60;0.40;;;;;;;2.54;46.57;100156.22;4373912;32;32742;-92
2022/01/22 03:08:05;;;;;;;3.33;0.57;;;;;;;2.70;46.34;100146.56;4366570;32;32320;-92
2022/01/22 03:10:49;;;;;;;1.15;0.60;;;;;;;2.85;45.99;100139.53;4344088;32;32791;-91
2022/01/22 03:19:33;;;;;;;1.60;0.90;;;;;;;2.59;46.96;100137.97;4376869;32;32115;-89
2022/01/22 03:22:16;;;;;;;1.73;0.62;;;;;;;2.46;47.17;100131.94;4369914;32;32819;-90
2022/01/22 03:28:25;;;;;;;1.02;0.50;;;;;;;2.37;47.79;100126.78;4378154;32;33225;-91
2022/01/22 03:31:07;;;;;;;2.55;0.77;;;;;;;2.33;48.21;100132.91;4343545;33;32023;-92
2022/01/22 03:34:15;;;;;;;1.02;0.62;;;;;;;2.87;46.74;100123.00;4392092;32;32945;-91
2022/01/22 03:36:54;;;;;;;2.45;0.85;;;;;;;2.99;46.64;100112.50;4370732;32;34586;-91
2022/01/22 03:39:39;;;;;;;0.70;0.52;;;;;;;2.87;47.20;100116.91;4386350;32;32620;-91
2022/01/22 03:42:13;;;;;;;3.12;1.00;;;;;;;2.85;47.20;100110.84;4394248;32;32197;-92
2022/01/22 03:45:10;;;;;;;3.42;1.17;;;;;;;2.66;47.64;100117.91;4404969;32;32662;-91
2022/01/22 03:47:59;;;;;;;1.83;1.20;;;;;;;2.97;47.34;100113.38;4417988;32;33025;-92
2022/01/22 03:50:35;;;;;;;2.55;0.98;;;;;;;2.68;47.27;100090.97;4420178;32;34190;-91
2022/01/22 03:53:11;;;;;;;3.95;0.98;;;;;;;2.59;47.98;100088.44;4396499;32;33597;-92
2022/01/22 03:56:12;;;;;;;1.62;0.60;;;;;;;2.75;48.28;100090.06;4390439;32;32343;-91
2022/01/22 03:59:02;;;;;;;2.37;0.93;;;;;;;2.87;48.26;100091.72;4392647;32;33396;-91
2022/01/22 04:05:03;;;;;;;4.35;0.80;;;;;;;2.74;52.14;100090.91;4370015;32;34148;-90
2022/01/22 04:10:19;;;;;;;3.67;1.00;;;;;;;2.71;56.83;100090.97;4364613;32;32923;-90
2022/01/22 04:12:58;;;;;;;2.17;1.08;;;;;;;2.50;58.38;100096.31;4370746;32;33806;-91
2022/01/22 04:15:33;;;;;;;3.72;1.08;;;;;;;2.68;58.34;100085.75;4363074;32;32695;-91
2022/01/22 04:26:43;;;;;;;4.53;1.10;;;;;;;2.73;59.93;100086.59;4370571;32;32296;-90
2022/01/22 04:29:10;;;;;;;2.45;1.10;;;;;;;2.82;60.24;100083.06;4355546;32;32855;-89
2022/01/22 04:31:38;;;;;;;2.55;1.08;;;;;;;2.80;60.78;100082.19;4355800;32;33013;-89
2022/01/22 04:34:05;;;;;;;5.53;1.27;;;;;;;2.70;61.81;100078.78;4362693;32;33848;-89
2022/01/22 04:36:33;;;;;;;3.03;1.10;;;;;;;2.71;62.24;100072.72;4369284;32;33307;-89
2022/01/22 04:39:03;;;;;;;2.10;1.48;;;;;;;2.86;62.08;100076.06;4362628;32;32718;-90
2022/01/22 04:41:30;;;;;;;4.00;1.42;;;;;;;2.67;63.15;100067.53;4358648;32;33086;-90
2022/01/22 04:44:01;;;;;;;4.40;1.55;;;;;;;2.82;63.16;100067.41;4370614;32;32571;-89
2022/01/22 04:46:51;;;;;;;2.92;1.80;;;;;;;2.54;64.24;100061.53;4365926;32;32130;-90
2022/01/22 04:57:23;;;;;;;6.93;2.20;;;;;;;2.91;64.16;100050.81;4370301;32;33923;-90
2022/01/22 04:59:51;;;;;;;2.10;1.33;;;;;;;2.86;64.67;100048.25;4363538;32;32868;-90
2022/01/22 05:02:19;;;;;;;3.70;2.08;;;;;;;2.97;64.55;100042.94;4355607;32;32902;-89
2022/01/22 05:04:47;;;;;;;6.60;1.67;;;;;;;2.99;64.72;100056.81;4381079;32;34976;-90
2022/01/22 05:07:15;;;;;;;1.75;1.37;;;;;;;3.07;64.27;100052.41;4352012;32;32073;-89
2022/01/22 05:09:44;;;;;;;8.07;1.30;;;;;;;3.07;64.70;100055.00;4369571;32;32802;-89
2022/01/22 05:12:12;;;;;;;3.78;1.30;;;;;;;3.27;63.96;100045.25;4376875;32;33460;-90
2022/01/22 05:14:40;;;;;;;3.85;1.85;;;;;;;3.18;64.42;100054.91;4371373;32;33342;-92
2022/01/22 05:17:09;;;;;;;6.12;2.15;;;;;;;3.11;64.50;100058.47;4363213;32;32699;-91
2022/01/22 05:20:26;;;;;;;2.67;1.80;;;;;;;3.21;64.49;100055.75;4383445;32;35784;-91
2022/01/22 05:23:08;;;;;;;2.90;1.60;;;;;;;3.04;65.10;100052.44;4388430;32;33068;-91
2022/01/22 05:25:44;;;;;;;2.72;1.62;;;;;;;3.29;64.31;100058.28;4395472;32;33188;-91
2022/01/22 05:28:49;;;;;;;3.58;2.15;;;;;;;3.10;64.89;100059.34;4398514;32;33798;-90
2022/01/22 05:31:32;;;;;;;2.92;1.70;;;;;;;3.09;65.19;100061.09;4397566;32;32419;-90
2022/01/22 05:37:34;;;;;;;1.90;1.40;;;;;;;3.24;64.78;100053.13;4358871;32;33763;-91
2022/01/22 05:40:14;;;;;;;2.80;1.73;;;;;;;3.18;65.09;100055.78;4396622;32;32217;-91
2022/01/22 05:43:05;;;;;;;3.03;1.90;;;;;;;3.10;65.63;100051.53;4388873;32;32876;-91
2022/01/22 05:45:47;;;;;;;5.35;1.92;;;;;;;3.24;65.27;100045.28;4386494;32;33127;-91
2022/01/22 05:48:41;;;;;;;5.57;2.75;;;;;;;3.27;65.13;100040.00;4397126;32;34567;-90
2022/01/22 05:51:20;;;;;;;3.80;2.58;;;;;;;3.52;64.22;100039.78;4402048;32;33444;-92
2022/01/22 06:00:07;;;;;;;2.87;1.90;;;;;;;3.29;65.38;100043.50;4385863;32;20122;-91
2022/01/22 06:02:46;;;;;;;5.43;2.70;;;;;;;3.32;65.51;100045.19;4361516;32;33142;-93
2022/01/22 06:05:38;;;;;;;3.33;2.00;;;;;;;3.10;66.36;100049.78;4375363;32;33686;-92
2022/01/22 06:08:47;;;;;;;2.72;1.95;;;;;;;3.27;65.80;100055.69;4394404;32;32559;-92
2022/01/22 06:11:22;;;;;;;3.37;1.92;;;;;;;3.07;66.63;100057.63;4406973;32;34067;-93
2022/01/22 06:14:27;;;;;;;2.70;1.92;;;;;;;3.32;65.93;100059.12;4384079;32;32323;-92
2022/01/22 06:17:18;;;;;;;3.65;1.80;;;;;;;3.12;66.75;100055.84;4398872;32;35563;-92
2022/01/22 06:20:12;;;;;;;5.20;1.50;;;;;;;3.36;65.96;100057.34;4384076;32;32838;-90
2022/01/22 06:22:44;;;;;;;2.40;1.65;;;;;;;3.11;66.76;100058.47;4390772;32;33718;-91
2022/01/22 06:25:13;;;;;;;1.75;1.30;;;;;;;3.32;66.01;100056.53;4391365;32;32336;-91
2022/01/22 06:28:04;;;;;;;2.72;1.20;;;;;;;3.16;66.81;100067.97;4413240;32;33669;-90
2022/01/22 06:30:32;;;;;;;5.30;1.58;;;;;;;2.93;67.61;100069.91;4394614;32;33348;-92
2022/01/22 06:33:23;;;;;;;1.48;1.15;;;;;;;3.10;67.00;100068.03;4385745;32;32175;-93
2022/01/22 06:36:04;;;;;;;3.95;1.27;;;;;;;3.03;67.01;100072.44;4396118;32;32075;-91
2022/01/22 06:38:33;;;;;;;1.83;1.00;;;;;;;3.25;66.16;100070.50;4388698;32;33970;-92
2022/01/22 06:44:43;;;;;;;5.65;2.78;;;;;;;3.24;65.83;100089.66;4393700;32;34249;-90
2022/01/22 06:47:15;;;;;;;;;;;;;;;3.24;66.03;100086.19;4392036;32;32277;-90
2022/01/22 06:49:44;;;;;;;1.77;0.80;;;;;;;3.12;66.55;100092.34;4398878;32;33158;-90
2022/01/22 06:52:15;;;;;;;1.75;0.98;;;;;;;3.43;65.24;100090.34;4391769;32;33361;-90
2022/01/22 06:55:08;;;;;;;1.10;1.00;;;;;;;3.49;64.61;100082.44;4396782;32;32581;-91
2022/01/22 06:58:16;;;;;;;2.00;0.98;;;;;;;3.47;64.67;100079.00;4399087;32;33141;-93
2022/01/22 07:01:07;;;;;;;1.52;1.00;;;;;;;3.48;64.72;100075.50;4378840;32;34256;-94
2022/01/22 07:03:59;;;;;;;3.72;1.10;;;;;;;3.41;64.56;100078.16;4364485;32;32588;-90
2022/01/22 07:11:17;;;;;;;3.08;1.87;;;;;;;3.24;64.87;100092.25;4377022;32;34088;-90
2022/01/22 07:13:46;;;;;;;2.87;1.55;;;;;;;3.77;62.98;100098.66;4385093;32;33094;-90
2022/01/22 07:16:14;;;;;;;5.18;1.95;;;;;;;3.66;63.18;100102.31;4401665;32;34326;-90
2022/01/22 07:18:44;;;;;;;3.95;1.75;;;;;;;3.07;64.61;100112.41;4363795;32;32984;-90
2022/01/22 07:21:20;;;;;;;3.55;2.03;;;;;;;3.22;64.35;100114.87;4399964;32;32146;-90
2022/01/22 07:26:20;;;;;;;4.82;1.95;;;;;;;3.45;64.10;100124.25;4372917;32;33027;-90
2022/01/22 07:28:48;;;;;;;3.80;1.60;;;;;;;3.41;64.16;100125.16;4370048;32;33801;-92
2022/01/22 07:31:48;;;;;;;2.35;1.95;;;;;;;3.08;65.12;100138.47;4355965;32;33435;-90
2022/01/22 07:34:17;;;;;;;2.62;1.85;;;;;;;2.83;66.73;100143.00;4368788;32;32478;-88
2022/01/22 07:36:46;;;;;;;2.35;1.73;;;;;;;3.01;66.27;100138.56;4327237;32;33306;-88
2022/01/22 07:39:14;;;;;;;4.07;2.25;;;;;;;2.98;65.64;100129.00;4343147;32;33784;-89
2022/01/22 07:41:43;;;;;;;4.40;2.08;;;;;;;3.15;65.41;100128.00;4361443;32;33566;-88
2022/01/22 07:44:13;;;;;;;4.18;2.53;;;;;;;3.51;64.25;100116.34;4338219;32;33880;-88
2022/01/22 07:46:43;;;;;;;4.03;2.70;;;;;;;3.43;64.52;100123.41;4355874;32;34365;-88
2022/01/22 07:49:14;;;;;;;3.17;1.90;;;;;;;3.11;65.67;100127.16;4351304;32;32956;-88
2022/01/22 07:51:42;;;;;;;3.47;1.98;;;;;;;3.06;65.81;100127.19;4365411;32;32305;-88
2022/01/22 07:54:10;;;;;;;4.75;1.95;;;;;;;3.17;65.49;100132.31;4344243;32;34803;-88
2022/01/22 07:56:38;;;;;;;4.07;2.17;;;;;;;3.32;64.97;100116.56;4338873;32;33422;-88
2022/01/22 07:59:06;;;;;;;5.85;1.58;;;;;;;3.40;64.52;100113.84;4362616;32;33821;-87
2022/01/22 08:01:34;;;;;;;2.22;1.45;;;;;;;3.63;63.68;100111.00;4364996;32;31931;-88
2022/01/22 08:04:09;;;;;;;5.97;1.77;;;;;;;3.74;63.25;100098.69;4349228;32;32772;-87
2022/01/22 08:06:38;;;;;;;4.65;2.25;;;;;;;3.58;63.95;100104.97;4355604;32;34406;-87
2022/01/22 08:09:11;;;;;;;5.37;2.72;;;;;;;3.60;63.90;100111.91;4352095;32;32507;-85
2022/01/22 08:11:41;;;;;;;2.45;1.67;;;;;;;3.74;63.52;100114.38;4343548;32;32425;-87
2022/01/22 08:14:10;;;;;;;2.67;1.15;;;;;;;3.64;63.47;100110.12;4344567;32;34109;-91
2022/01/22 08:17:02;;;;;;;1.87;1.42;;;;;;;3.60;63.73;100117.12;4423664;32;33661;-92
2022/01/22 08:19:41;;;;;;;1.83;1.23;;;;;;;3.77;63.46;100103.03;4396095;32;31464;-92
2022/01/22 08:22:34;;;;;;;3.33;2.17;;;;;;;3.76;63.11;100120.47;4353658;32;33959;-92
2022/01/22 08:25:29;;;;;;;4.25;2.35;;;;;;;3.93;62.41;100124.63;4357997;32;33612;-92
2022/01/22 08:30:31;;;;;;;4.93;2.58;;;;;;;3.89;63.23;100130.75;4368080;32;32764;-90
2022/01/22 08:35:54;;;;;;;6.25;3.05;;;;;;;4.04;61.87;100138.44;4385214;32;32964;-91
2022/01/22 08:38:29;;;;;;;5.15;2.80;;;;;;;3.60;63.33;100142.37;4399636;32;32313;-91
2022/01/22 08:41:09;;;;;;;3.20;1.98;;;;;;;4.35;61.60;100152.84;4373261;32;32781;-90
2022/01/22 08:43:42;;;;;;;4.78;2.65;;;;;;;4.18;61.73;100167.00;4385090;32;33310;-91
2022/01/22 08:46:10;;;;;;;3.58;2.12;;;;;;;4.23;61.25;100171.31;4398847;32;34484;-91
2022/01/22 08:48:38;;;;;;;2.30;1.58;;;;;;;4.05;62.35;100182.84;4385697;32;33306;-91
2022/01/22 08:51:08;;;;;;;5.07;2.92;;;;;;;4.17;61.77;100170.50;4377321;32;32626;-94
2022/01/22 08:54:10;;;;;;;2.75;1.87;;;;;;;4.58;60.59;100172.59;4370514;32;33026;-91
2022/01/22 08:57:15;;;;;;;4.47;2.67;;;;;;;4.88;nan;100172.16;4342451;33;33175;-90
2022/01/22 09:00:08;;;;;;;8.13;3.20;;;;;;;4.86;59.45;100181.78;4369593;32;33611;-90
2022/01/22 09:03:15;;;;;;;6.95;3.67;;;;;;;5.06;59.00;100175.41;4359255;32;33094;-90
2022/01/22 09:06:08;;;;;;;5.65;3.10;;;;;;;5.15;58.39;100180.50;4331989;33;31621;-90
2022/01/22 09:08:37;;;;;;;7.47;3.37;;;;;;;5.27;58.24;100174.19;4328399;33;33542;-91
2022/01/22 09:11:07;;;;;;;5.87;2.58;;;;;;;5.42;57.67;100183.56;4327592;32;33443;-89
2022/01/22 09:13:37;;;;;;;4.30;2.25;;;;;;;5.48;57.91;100180.84;4361354;32;32447;-88
2022/01/22 09:16:05;;;;;;;2.95;2.08;;;;;;;5.28;57.35;100186.41;4366150;32;34436;-88
2022/01/22 09:18:34;;;;;;;2.55;1.70;;;;;;;5.43;56.86;100201.00;4314505;32;32574;-88
2022/01/22 09:21:04;;;;;;;2.28;1.45;;;;;;;5.37;57.06;100208.06;4329765;32;31769;-88
2022/01/22 09:23:34;;;;;;;3.47;1.60;;;;;;;5.24;57.29;100210.91;4360117;32;33471;-88
2022/01/22 09:26:03;;;;;;;2.97;1.92;;;;;;;4.95;58.46;100213.97;4349186;32;32182;-88
2022/01/22 09:28:32;;;;;;;5.12;2.10;;;;;;;5.25;56.43;100213.50;4323638;32;32288;-88
2022/01/22 09:31:00;;;;;;;2.28;1.77;;;;;;;5.03;58.19;100217.31;4351946;32;32994;-88
2022/01/22 09:33:29;;;;;;;5.07;2.37;;;;;;;4.95;57.94;100227.03;4335842;32;33098;-88
2022/01/22 09:35:57;;;;;;;4.60;1.73;;;;;;;5.51;55.78;100218.34;4348315;32;33082;-88
2022/01/22 09:38:26;;;;;;;3.58;2.03;;;;;;;5.49;55.47;100227.09;4349098;32;32786;-88
2022/01/22 09:40:56;;;;;;;3.25;1.70;;;;;;;5.26;56.29;100230.94;4362322;32;33247;-88
2022/01/22 09:43:24;;;;;;;2.62;1.60;;;;;;;5.58;54.89;100232.19;4366436;32;33322;-88
2022/01/22 09:45:55;;;;;;;3.45;1.77;;;;;;;5.74;55.16;100236.25;4336807;32;33162;-87
2022/01/22 09:48:23;;;;;;;4.30;2.00;;;;;;;5.59;54.95;100228.66;4348317;32;34141;-87
2022/01/22 09:50:52;;;;;;;2.97;1.62;;;;;;;5.48;55.09;100233.22;4354122;32;32987;-87
2022/01/22 09:53:21;;;;;;;7.50;2.12;;;;;;;5.80;55.18;100225.69;4323662;33;33721;-87
2022/01/22 09:55:50;;;;;;;6.50;1.77;;;;;;;5.87;54.34;100229.06;4344023;32;32755;-87
2022/01/22 09:58:18;;;;;;;4.20;2.10;;;;;;;6.23;52.64;100230.19;4336209;33;34085;-87
2022/01/22 10:00:47;;;;;;;3.78;2.17;;;;;;;6.05;52.91;100233.16;4346563;32;34115;-87
2022/01/22 10:03:19;;;;;;;3.55;2.15;;;;;;;6.14;53.19;100227.75;4352042;32;33999;-87
2022/01/22 10:05:48;;;;;;;7.80;2.25;;;;;;;5.78;54.38;100234.47;4339754;32;32146;-87
2022/01/22 10:08:27;;;;;;;5.03;2.85;;;;;;;6.09;52.94;100230.44;4353353;32;33792;-87
2022/01/22 10:10:57;;;;;;;8.48;3.10;;;;;;;5.83;53.21;100233.50;4338977;32;32070;-88
2022/01/22 10:13:39;;;;;;;3.90;2.40;;;;;;;6.00;53.39;100225.38;4340532;32;34455;-87
2022/01/22 10:16:19;;;;;;;7.00;3.20;;;;;;;6.22;52.04;100227.56;4362330;32;34037;-87
2022/01/22 10:19:07;;;;;;;4.93;2.70;;;;;;;6.34;51.55;100229.97;4350859;32;32741;-87
2022/01/22 10:21:36;;;;;;;8.02;3.00;;;;;;;6.38;51.02;100235.12;4338160;32;32987;-87
2022/01/22 10:24:44;;;;;;;6.35;2.75;;;;;;;6.03;53.17;100237.53;4349560;32;34680;-87
2022/01/22 10:30:15;;;;;;;6.68;3.08;;;;;;;5.82;53.81;100246.63;4360476;32;33192;-86
2022/01/22 10:32:51;;;;;;;4.45;2.42;;;;;;;6.02;52.75;100249.78;4337137;32;32673;-87
2022/01/22 10:35:24;;;;;;;4.32;2.70;;;;;;;6.59;50.25;100244.31;4351336;32;36112;-87
2022/01/22 10:38:17;;;;;;;5.10;2.55;;;;;;;6.56;50.92;100248.78;4357986;32;32032;-86
2022/01/22 10:40:46;;;;;;;6.35;2.62;;;;;;;6.94;49.23;100253.25;4362886;32;34190;-87
2022/01/22 10:43:16;;;;;;;4.03;2.25;;;;;;;6.72;49.12;100251.97;4353358;32;33870;-87
2022/01/22 10:46:07;;;;;;;2.92;2.05;;;;;;;6.66;50.09;100248.56;4339941;32;33133;-87
2022/01/22 10:48:57;;;;;;;5.10;2.28;;;;;;;6.96;48.56;100250.56;4339655;32;34296;-87
2022/01/22 10:51:27;;;;;;;2.58;1.50;;;;;;;7.27;48.06;100251.63;4348147;32;32238;-87
2022/01/22 10:53:58;;;;;;;4.25;1.75;;;;;;;7.36;46.92;100264.53;4340344;32;33557;-87
2022/01/22 10:56:28;;;;;;;3.67;1.60;;;;;;;7.10;47.85;100264.25;4351663;32;31967;-87
2022/01/22 10:59:02;;;;;;;3.33;2.25;;;;;;;6.94;47.84;100263.75;4352130;32;32499;-87
2022/01/22 11:01:52;;;;;;;2.35;1.80;;;;;;;6.90;49.01;100262.06;4327130;32;32494;-87
2022/01/22 11:04:22;;;;;;;2.10;1.60;;;;;;;7.10;47.74;100274.75;4341771;32;32683;-87
2022/01/22 11:06:52;;;;;;;3.62;1.62;;;;;;;6.50;49.48;100283.00;4341814;32;33350;-86
2022/01/22 11:09:39;;;;;;;3.65;2.00;;;;;;;6.89;47.42;100282.22;4349095;32;32580;-87
2022/01/22 11:12:08;;;;;;;4.43;1.75;;;;;;;6.78;46.92;100280.69;4374299;32;32352;-87
2022/01/22 11:14:37;;;;;;;2.72;1.62;;;;;;;7.22;45.46;100274.50;4341426;32;31704;-87
2022/01/22 11:17:06;;;;;;;3.12;1.60;;;;;;;6.53;47.46;100289.06;4340727;32;32687;-86
2022/01/22 11:19:36;;;;;;;6.03;1.48;;;;;;;6.88;44.92;100295.34;4360266;32;32824;-87
2022/01/22 11:22:09;;;;;;;3.75;1.77;;;;;;;6.67;46.34;100292.28;4338013;32;34570;-87
2022/01/22 11:24:40;;;;;;;4.72;2.10;;;;;;;6.82;46.58;100296.34;4348722;32;33040;-86
2022/01/22 11:27:10;;;;;;;3.55;2.20;;;;;;;6.60;46.99;100302.94;4338812;32;33829;-86
2022/01/22 11:29:41;;;;;;;3.08;1.42;;;;;;;6.77;46.81;100302.59;4348163;32;33828;-87
2022/01/22 11:32:11;;;;;;;2.00;1.50;;;;;;;6.80;45.12;100302.53;4353183;32;34703;-86
2022/01/22 11:34:41;;;;;;;3.15;1.08;;;;;;;6.77;45.55;100307.84;4359406;32;33541;-86
2022/01/22 11:37:15;;;;;;;2.35;1.17;;;;;;;7.01;44.06;100301.22;4350425;32;34099;-87
2022/01/22 11:39:43;;;;;;;1.90;1.00;;;;;;;7.12;42.99;100307.09;4348777;32;32058;-86
2022/01/22 11:42:10;;;;;;;1.00;0.70;;;;;;;7.14;40.10;100307.94;4331352;32;32736;-87
2022/01/22 11:44:48;;;;;;;2.30;1.05;;;;;;;6.89;39.19;100303.22;4353797;32;33096;-87
2022/01/22 11:47:22;;;;;;;2.22;1.12;;;;;;;6.58;40.80;100307.34;4357868;32;33839;-87
2022/01/22 11:50:13;;;;;;;4.60;1.62;;;;;;;6.74;42.09;100316.66;4338804;32;32542;-87
2022/01/22 11:52:42;;;;;;;2.45;1.40;;;;;;;6.43;43.64;100318.97;4360668;32;33648;-86
2022/01/22 11:55:09;;;;;;;1.92;1.10;;;;;;;6.39;45.19;100323.41;4350148;32;33234;-86
2022/01/22 11:57:38;;;;;;;2.08;1.48;;;;;;;6.72;41.39;100313.19;4352791;32;33752;-88
2022/01/22 12:00:16;;;;;;;1.87;0.85;;;;;;;6.41;42.00;100323.41;4366953;32;32945;-88
2022/01/22 12:02:43;;;;;;;2.80;1.10;;;;;;;6.45;42.12;100322.44;4364218;32;33068;-88
2022/01/22 12:05:11;;;;;;;1.20;1.00;;;;;;;6.35;41.59;100332.22;4365624;32;33519;-88
2022/01/22 12:07:56;;;;;;;3.00;1.70;;;;;;;6.13;43.12;100337.00;4341141;32;32107;-88
2022/01/22 12:10:41;;;;;;;1.40;1.00;;;;;;;5.86;45.33;100348.75;4365923;32;32587;-88
2022/01/22 12:16:12;;;;;;;0.82;0.60;;;;;;;6.02;42.35;100349.41;4347416;32;33672;-88
2022/01/22 12:18:48;;;;;;;1.77;0.80;;;;;;;6.36;42.08;100333.97;4353020;32;33119;-88
2022/01/22 12:21:35;;;;;;;1.42;1.10;;;;;;;6.43;40.03;100344.34;4352484;32;33578;-89
2022/01/22 12:24:07;;;;;;;3.08;1.27;;;;;;;6.31;40.92;100340.16;4340908;32;34167;-89
2022/01/22 12:26:37;;;;;;;4.43;1.52;;;;;;;6.19;41.20;100336.03;4331083;32;33800;-89
2022/01/22 12:29:32;;;;;;;1.48;1.08;;;;;;;5.81;44.85;100331.38;4344643;32;33032;-89
2022/01/22 12:32:04;;;;;;;2.03;1.15;;;;;;;6.24;41.76;100342.06;4355277;32;33310;-89
2022/01/22 12:34:51;;;;;;;1.60;1.10;;;;;;;6.03;42.34;100345.91;4363765;32;32833;-90
2022/01/22 12:37:22;;;;;;;2.33;1.23;;;;;;;5.84;42.92;100337.44;4352727;32;33300;-90
2022/01/22 12:39:53;;;;;;;1.15;0.80;;;;;;;6.05;40.92;100332.78;4342042;32;33563;-89
2022/01/22 12:42:33;;;;;;;1.20;0.68;;;;;;;6.35;41.04;100326.97;4365337;32;32137;-90
2022/01/22 12:45:06;;;;;;;3.45;1.10;;;;;;;5.88;40.66;100328.63;4359266;32;32946;-90
2022/01/22 12:47:37;;;;;;;2.20;0.77;;;;;;;5.59;43.67;100328.22;4350791;32;34213;-90
2022/01/22 12:50:07;;;;;;;2.00;0.82;;;;;;;6.04;42.74;100331.91;4340740;32;33384;-90
2022/01/22 12:52:37;;;;;;;1.60;0.82;;;;;;;5.95;42.07;100332.06;4330545;32;32900;-90
2022/01/22 12:55:17;;;;;;;2.87;1.12;;;;;;;5.85;43.41;100320.81;4343184;32;32713;-90
2022/01/22 12:57:59;;;;;;;1.85;0.70;;;;;;;5.67;42.84;100342.06;4346000;32;32839;-91
2022/01/22 13:00:27;;;;;;;1.25;1.08;;;;;;;5.23;43.21;100346.19;4342688;32;32800;-90
2022/01/22 13:02:55;;;;;;;3.17;0.98;;;;;;;5.33;42.01;100353.03;4343824;32;32262;-91
2022/01/22 13:05:31;;;;;;;2.10;1.15;;;;;;;5.37;41.02;100370.44;4341934;32;33173;-90
2022/01/22 13:08:07;;;;;;;1.62;0.90;;;;;;;5.20;40.72;100353.22;4350388;32;33959;-91
2022/01/22 13:10:44;;;;;;;3.62;0.93;;;;;;;5.26;42.62;100359.22;4325954;32;33253;-86
2022/01/22 13:13:17;;;;;;;2.95;1.42;;;;;;;4.92;41.73;100355.31;4352319;32;33829;-87
2022/01/22 13:15:45;;;;;;;2.20;1.02;;;;;;;4.75;43.00;100369.44;4345455;32;32911;-86
2022/01/22 13:18:13;;;;;;;2.83;0.88;;;;;;;4.94;41.62;100358.75;4343820;33;34782;-87
2022/01/22 13:20:42;;;;;;;2.22;0.95;;;;;;;4.65;41.71;100372.16;4340828;33;33172;-86
2022/01/22 13:23:18;;;;;;;1.75;0.98;;;;;;;4.32;42.46;100361.16;4337383;32;34189;-86
2022/01/22 13:25:46;;;;;;;1.73;0.90;;;;;;;4.54;41.65;100369.66;4345888;33;32356;-87
2022/01/22 13:28:15;;;;;;;4.07;0.85;;;;;;;4.44;41.92;100381.09;4333268;33;34388;-87
2022/01/22 13:30:55;;;;;;;1.30;0.82;;;;;;;4.25;41.73;100377.78;4321200;33;32742;-86
2022/01/22 13:33:37;;;;;;;1.35;0.82;;;;;;;4.37;41.72;100386.41;4333735;33;32611;-87
2022/01/22 13:39:23;;;;;;;1.85;0.90;;;;;;;4.28;41.29;100399.53;4333925;33;33361;-86
2022/01/22 13:45:08;;;;;;;2.05;0.98;;;;;;;4.62;40.48;100414.94;4344311;32;32596;-87
2022/01/22 13:47:47;;;;;;;2.37;1.50;;;;;;;4.78;40.50;100411.25;4357904;32;33146;-87
2022/01/22 13:50:15;;;;;;;4.78;1.33;;;;;;;4.94;40.18;100421.56;4344743;33;33860;-86
2022/01/22 13:52:44;;;;;;;1.55;0.88;;;;;;;4.55;42.21;100418.47;4346100;33;32730;-87
2022/01/22 13:55:14;;;;;;;4.82;1.20;;;;;;;4.59;40.43;100422.78;4319491;33;32622;-87
2022/01/22 13:57:44;;;;;;;1.95;1.25;;;;;;;4.62;41.98;100425.38;4342722;33;33099;-87
2022/01/22 14:00:15;;;;;;;3.55;1.73;;;;;;;4.81;42.26;100436.53;4346208;32;33347;-87